Time;durP1;ratioP1;P1;durP2;ratioP2;P2;SDS_P1;SDS_P2;PMS_P1;PMS_P2;Temp;Humidity;BMP_temperature;BMP_pressure;BME280_temperature;BME280_humidity;BME280_pressure;Samples;Min_cycle;Max_cycle;Signal;HPM_P1;HPM_P2
2021/07/22 00:02:35;;;;;;;3.83;2.47;;;;;;;17.49;70.02;99027.50;5065258;28;20025;-57
2021/07/22 00:05:21;;;;;;;3.80;2.80;;;;;;;17.52;69.95;99032.56;5061777;28;20055;-57
2021/07/22 00:08:11;;;;;;;4.38;2.50;;;;;;;17.61;69.59;99031.97;5064138;28;20071;-57
2021/07/22 00:10:57;;;;;;;3.22;2.92;;;;;;;17.63;69.30;99030.13;5063974;28;20079;-57
2021/07/22 00:13:43;;;;;;;3.65;2.88;;;;;;;17.59;69.22;99021.59;5064061;28;20053;-57
2021/07/22 00:16:30;;;;;;;2.92;2.33;;;;;;;17.70;69.18;99036.66;5062568;28;20037;-57
2021/07/22 00:19:16;;;;;;;3.00;2.60;;;;;;;17.67;68.70;99041.22;5064622;28;20035;-58
2021/07/22 00:22:02;;;;;;;3.33;2.88;;;;;;;17.68;69.11;99040.31;5064356;28;20262;-57
2021/07/22 00:24:47;;;;;;;4.85;2.55;;;;;;;17.63;68.55;99034.50;5055621;28;20037;-57
2021/07/22 00:27:34;;;;;;;5.05;2.88;;;;;;;17.50;69.01;99026.56;5064203;28;20028;-57
2021/07/22 00:30:20;;;;;;;4.15;2.70;;;;;;;17.51;68.94;99041.34;5063973;28;20021;-57
2021/07/22 00:33:06;;;;;;;6.03;2.72;;;;;;;17.55;68.98;99037.59;5062578;28;20027;-57
2021/07/22 00:35:53;;;;;;;4.63;2.22;;;;;;;17.57;68.68;99048.81;5063025;28;20096;-57
2021/07/22 00:38:38;;;;;;;3.10;2.80;;;;;;;17.55;68.28;99055.94;5062806;28;20033;-57
2021/07/22 00:41:24;;;;;;;4.00;2.65;;;;;;;17.58;68.49;99064.41;5063341;28;20029;-57
2021/07/22 00:44:10;;;;;;;2.63;2.22;;;;;;;17.51;69.33;99062.28;5063503;28;20274;-57
2021/07/22 00:46:56;;;;;;;3.20;2.45;;;;;;;17.50;69.12;99057.97;5063508;28;20029;-57
2021/07/22 00:49:42;;;;;;;3.55;3.25;;;;;;;17.52;69.05;99054.31;5063602;28;20033;-57
2021/07/22 00:52:28;;;;;;;3.20;2.33;;;;;;;17.51;68.87;99054.41;5063524;28;20368;-57
2021/07/22 00:55:17;;;;;;;3.58;2.70;;;;;;;17.36;69.76;99054.41;5063108;28;20029;-57
2021/07/22 00:58:03;;;;;;;3.85;2.67;;;;;;;17.29;69.38;99047.00;5058259;28;20029;-57
2021/07/22 01:00:48;;;;;;;4.78;2.60;;;;;;;17.34;69.78;99053.66;5056803;28;20021;-57
2021/07/22 01:03:38;;;;;;;3.92;2.30;;;;;;;17.36;70.19;99058.81;5063888;28;20040;-57
2021/07/22 01:06:25;;;;;;;2.75;2.40;;;;;;;17.33;69.79;99054.59;5063007;28;20029;-57
2021/07/22 01:09:10;;;;;;;3.22;2.30;;;;;;;17.37;69.84;99065.72;5062680;28;20056;-57
2021/07/22 01:11:56;;;;;;;2.78;2.58;;;;;;;17.36;69.79;99066.66;5063393;28;20037;-57
2021/07/22 01:14:43;;;;;;;4.43;2.58;;;;;;;17.35;69.87;99064.97;5062444;28;20037;-57
2021/07/22 01:17:44;;;;;;;4.05;2.38;;;;;;;17.24;69.86;99060.38;5062576;28;20025;-57
2021/07/22 01:20:30;;;;;;;2.80;2.25;;;;;;;17.28;70.21;99074.97;5062570;28;20056;-58
2021/07/22 01:23:16;;;;;;;4.88;2.72;;;;;;;17.16;70.40;99078.28;5059521;28;20032;-58
2021/07/22 01:26:02;;;;;;;3.25;2.50;;;;;;;17.19;70.09;99068.50;5063260;28;20025;-57
2021/07/22 01:28:48;;;;;;;4.97;2.75;;;;;;;17.17;69.85;99083.47;5061922;28;20032;-57
2021/07/22 01:31:33;;;;;;;4.25;2.53;;;;;;;17.18;69.56;99073.81;5061173;28;20060;-57
2021/07/22 01:34:19;;;;;;;3.20;2.30;;;;;;;17.10;70.62;99074.25;5062031;28;20035;-57
2021/07/22 01:37:05;;;;;;;2.50;2.13;;;;;;;17.13;70.03;99081.94;5062578;28;20043;-58
2021/07/22 01:39:51;;;;;;;2.22;2.08;;;;;;;17.23;69.84;99074.41;5062514;28;20087;-58
2021/07/22 01:42:37;;;;;;;3.70;2.38;;;;;;;17.18;70.56;99081.66;5062171;28;20028;-58
2021/07/22 01:45:23;;;;;;;3.58;2.25;;;;;;;17.06;70.65;99075.38;5062013;28;20222;-58
2021/07/22 01:48:09;;;;;;;3.22;2.70;;;;;;;16.94;71.01;99083.94;5061890;28;20025;-58
2021/07/22 01:50:55;;;;;;;4.15;2.60;;;;;;;16.91;71.33;99082.34;5062066;28;20326;-58
2021/07/22 01:53:41;;;;;;;3.67;2.35;;;;;;;17.02;70.29;99082.56;5061650;28;20029;-58
2021/07/22 01:56:27;;;;;;;2.97;2.45;;;;;;;17.08;70.08;99087.44;5062513;28;20090;-58
2021/07/22 01:59:13;;;;;;;4.25;2.25;;;;;;;17.06;70.46;99078.84;5061943;28;20053;-57
2021/07/22 02:01:58;;;;;;;3.85;2.40;;;;;;;16.97;69.90;99078.53;5061347;28;20048;-58
2021/07/22 02:04:44;;;;;;;4.90;2.47;;;;;;;16.97;70.33;99076.75;5062090;28;20077;-56
2021/07/22 02:07:30;;;;;;;2.17;1.90;;;;;;;16.96;70.87;99075.06;5061946;28;20029;-57
2021/07/22 02:10:16;;;;;;;2.13;1.92;;;;;;;16.97;69.58;99083.75;5062021;28;20057;-57
2021/07/22 02:13:02;;;;;;;2.47;2.13;;;;;;;16.97;70.15;99084.59;5061900;28;20036;-57
2021/07/22 02:15:48;;;;;;;3.35;2.40;;;;;;;16.98;70.27;99088.06;5054474;28;20085;-57
2021/07/22 02:18:34;;;;;;;6.57;2.33;;;;;;;16.70;70.72;99051.22;5061798;28;20024;-57
2021/07/22 02:21:21;;;;;;;3.50;2.38;;;;;;;16.95;70.35;99085.63;5061695;28;20025;-56
2021/07/22 02:24:09;;;;;;;2.67;2.17;;;;;;;16.73;69.27;99051.06;5061287;28;20238;-55
2021/07/22 02:26:56;;;;;;;2.72;2.45;;;;;;;17.07;68.87;99091.00;5061885;28;20092;-55
2021/07/22 02:29:42;;;;;;;4.53;2.25;;;;;;;17.12;68.39;99098.56;5061134;28;20032;-55
2021/07/22 02:32:28;;;;;;;1.88;1.70;;;;;;;17.14;67.75;99095.88;5061742;28;20205;-55
2021/07/22 02:35:14;;;;;;;2.22;1.90;;;;;;;17.12;68.37;99095.13;5061845;28;20056;-56
2021/07/22 02:38:00;;;;;;;2.28;2.05;;;;;;;17.20;68.27;99105.97;5061521;28;20075;-56
2021/07/22 02:40:45;;;;;;;2.40;1.80;;;;;;;17.22;67.57;99098.88;5059675;28;20231;-56
2021/07/22 02:43:34;;;;;;;2.58;1.90;;;;;;;17.20;67.46;99108.59;5061184;28;20310;-56
2021/07/22 02:46:19;;;;;;;5.55;2.08;;;;;;;17.13;66.79;99100.25;5061145;28;20029;-57
2021/07/22 02:49:05;;;;;;;2.95;1.80;;;;;;;17.20;67.24;99109.44;5061517;28;20029;-55
2021/07/22 02:51:52;;;;;;;3.58;1.70;;;;;;;17.23;66.40;99111.88;5062100;28;20033;-56
2021/07/22 02:54:38;;;;;;;2.67;1.88;;;;;;;17.33;66.00;99111.31;5060980;28;20036;-56
2021/07/22 02:57:25;;;;;;;1.95;1.42;;;;;;;17.41;65.56;99117.81;5064869;28;20359;-56
2021/07/22 03:00:12;;;;;;;3.95;1.98;;;;;;;17.34;64.34;99110.41;5065887;28;20021;-56
2021/07/22 03:03:01;;;;;;;3.47;1.80;;;;;;;17.38;65.10;99112.75;5065710;28;20021;-56
2021/07/22 03:05:48;;;;;;;1.92;1.50;;;;;;;17.37;64.45;99104.97;5065897;28;20037;-58
2021/07/22 03:08:35;;;;;;;2.45;1.50;;;;;;;17.47;63.96;99111.34;5064364;28;20029;-58
2021/07/22 03:11:21;;;;;;;3.45;1.42;;;;;;;17.50;63.92;99126.91;5064916;28;20100;-57
2021/07/22 03:14:07;;;;;;;3.13;1.60;;;;;;;17.52;62.60;99127.63;5065115;28;20331;-57
2021/07/22 03:16:54;;;;;;;1.50;1.40;;;;;;;17.32;62.60;99107.88;5064916;28;20021;-57
2021/07/22 03:19:39;;;;;;;3.45;1.52;;;;;;;17.37;63.08;99136.38;5064634;28;20028;-57
2021/07/22 03:22:25;;;;;;;3.63;1.52;;;;;;;17.47;62.58;99139.31;5064250;28;20025;-57
2021/07/22 03:25:12;;;;;;;4.13;1.50;;;;;;;17.50;63.64;99139.13;5065412;28;20032;-57
2021/07/22 03:28:01;;;;;;;3.28;2.50;;;;;;;17.64;62.69;99139.16;5058738;28;20021;-58
2021/07/22 03:30:47;;;;;;;1.77;1.30;;;;;;;17.68;61.30;99132.81;5064258;28;20035;-57
2021/07/22 03:33:33;;;;;;;1.85;1.42;;;;;;;17.72;61.14;99136.94;5063922;28;20029;-57
2021/07/22 03:36:19;;;;;;;2.25;1.48;;;;;;;17.70;61.00;99141.44;5065735;28;20024;-57
2021/07/22 03:39:05;;;;;;;1.98;1.38;;;;;;;17.74;61.87;99147.31;5063827;28;20211;-57
2021/07/22 03:41:50;;;;;;;2.67;1.33;;;;;;;17.77;60.79;99141.88;5063774;28;20033;-57
2021/07/22 03:44:36;;;;;;;2.55;1.15;;;;;;;17.73;60.49;99149.09;5064429;28;20020;-57
2021/07/22 03:47:22;;;;;;;1.63;1.33;;;;;;;17.77;60.11;99155.84;5064506;28;20021;-57
2021/07/22 03:50:08;;;;;;;2.22;1.15;;;;;;;17.87;59.56;99161.38;5064345;28;20021;-57
2021/07/22 03:52:55;;;;;;;1.63;1.45;;;;;;;17.90;60.60;99155.06;5064414;28;20092;-57
2021/07/22 03:55:41;;;;;;;2.38;1.50;;;;;;;17.99;59.43;99164.22;5064380;28;20025;-57
2021/07/22 03:58:27;;;;;;;2.90;1.52;;;;;;;18.05;59.81;99159.44;5063460;28;20028;-56
2021/07/22 04:01:13;;;;;;;2.22;1.45;;;;;;;18.05;58.71;99169.91;5063659;28;20032;-56
2021/07/22 04:03:59;;;;;;;2.15;1.23;;;;;;;18.13;58.54;99168.59;5065377;28;20106;-56
2021/07/22 04:06:45;;;;;;;1.50;1.20;;;;;;;18.16;58.41;99177.13;5063794;28;20104;-56
2021/07/22 04:09:31;;;;;;;3.83;1.10;;;;;;;18.17;58.62;99170.09;5063542;28;20045;-55
2021/07/22 04:12:17;;;;;;;3.53;1.27;;;;;;;18.22;58.49;99168.88;5063892;28;20032;-56
2021/07/22 04:15:04;;;;;;;3.47;1.30;;;;;;;18.23;57.32;99164.50;5059065;28;20035;-57
2021/07/22 04:17:51;;;;;;;3.03;1.42;;;;;;;18.31;57.86;99161.41;5063907;28;20028;-57
2021/07/22 04:20:37;;;;;;;2.38;1.40;;;;;;;18.32;57.16;99152.59;5063636;28;20273;-57
2021/07/22 04:23:22;;;;;;;2.50;1.20;;;;;;;18.36;57.69;99168.03;5063505;28;20053;-57
2021/07/22 04:26:15;;;;;;;2.28;1.23;;;;;;;18.09;58.04;99124.25;5063346;28;20021;-57
2021/07/22 04:29:01;;;;;;;2.05;1.42;;;;;;;18.42;57.02;99167.63;5063800;28;20029;-57
2021/07/22 04:31:47;;;;;;;2.30;1.25;;;;;;;18.52;57.16;99165.28;5063320;28;20025;-57
2021/07/22 04:34:33;;;;;;;2.30;1.42;;;;;;;18.60;56.98;99164.81;5063481;28;20229;-55
2021/07/22 04:37:19;;;;;;;1.40;1.30;;;;;;;18.65;57.21;99170.59;5063342;28;20029;-56
2021/07/22 04:40:06;;;;;;;2.42;1.45;;;;;;;18.68;56.54;99170.41;5063212;28;21078;-55
2021/07/22 04:42:52;;;;;;;1.67;1.23;;;;;;;18.72;56.08;99173.69;5063789;28;20144;-56
2021/07/22 04:45:38;;;;;;;2.40;1.33;;;;;;;18.67;55.11;99176.63;5063186;28;20112;-56
2021/07/22 04:48:24;;;;;;;2.28;1.42;;;;;;;18.62;54.35;99176.03;5063113;28;20025;-57
2021/07/22 04:51:09;;;;;;;5.00;1.25;;;;;;;18.67;54.00;99181.00;5063196;28;20029;-57
2021/07/22 04:53:55;;;;;;;5.95;1.35;;;;;;;18.78;54.58;99187.28;5057319;28;20351;-57
2021/07/22 04:56:41;;;;;;;3.15;1.42;;;;;;;18.94;54.46;99183.66;5063172;28;20095;-57
2021/07/22 04:59:27;;;;;;;2.83;1.27;;;;;;;19.01;54.20;99185.00;5063008;28;20126;-57
2021/07/22 05:02:15;;;;;;;1.73;1.13;;;;;;;19.11;53.68;99180.81;5061692;28;20032;-57
2021/07/22 05:05:02;;;;;;;4.60;1.38;;;;;;;19.04;53.59;99173.44;5062700;28;20021;-57
2021/07/22 05:07:47;;;;;;;6.35;1.40;;;;;;;19.25;53.41;99184.31;5056216;28;20033;-58
2021/07/22 05:10:33;;;;;;;2.42;1.27;;;;;;;19.27;52.42;99188.53;5062232;28;20094;-58
2021/07/22 05:13:19;;;;;;;3.67;0.98;;;;;;;19.34;52.41;99188.97;5062424;28;20044;-57
2021/07/22 05:16:06;;;;;;;3.17;1.23;;;;;;;19.51;52.34;99187.88;5062670;28;20031;-57
2021/07/22 05:18:52;;;;;;;1.75;1.00;;;;;;;19.55;51.99;99191.94;5062195;28;20045;-57
2021/07/22 05:21:38;;;;;;;6.28;1.20;;;;;;;19.73;51.13;99192.50;5062510;28;20041;-58
2021/07/22 05:24:24;;;;;;;1.80;1.08;;;;;;;19.87;51.06;99193.41;5062438;28;20096;-58
2021/07/22 05:27:14;;;;;;;3.17;1.02;;;;;;;19.70;50.44;99132.28;5063092;28;20090;-58
2021/07/22 05:30:00;;;;;;;1.10;0.90;;;;;;;20.07;50.85;99182.34;5062691;28;20229;-58
2021/07/22 05:32:45;;;;;;;1.20;1.08;;;;;;;20.15;50.67;99187.94;5062965;28;20215;-57
2021/07/22 05:35:32;;;;;;;2.13;1.13;;;;;;;20.05;49.68;99147.47;5061219;28;20028;-57
2021/07/22 05:38:18;;;;;;;4.45;1.27;;;;;;;20.43;49.11;99190.41;5062346;28;20135;-58
2021/07/22 05:41:06;;;;;;;3.25;1.20;;;;;;;20.46;48.74;99183.13;5057413;28;20318;-57
2021/07/22 05:43:52;;;;;;;6.40;1.33;;;;;;;20.63;49.69;99189.81;5056442;28;20033;-57
2021/07/22 05:46:38;;;;;;;2.63;0.90;;;;;;;20.62;49.93;99185.53;5062167;28;20165;-58
2021/07/22 05:49:24;;;;;;;1.73;0.93;;;;;;;20.59;49.80;99171.75;5062014;28;20024;-57
2021/07/22 05:52:10;;;;;;;2.33;1.10;;;;;;;20.57;48.64;99184.19;5062163;28;20305;-58
2021/07/22 05:54:56;;;;;;;1.65;1.02;;;;;;;20.56;48.65;99182.50;5056723;28;20035;-58
2021/07/22 05:57:42;;;;;;;1.50;1.05;;;;;;;20.66;48.89;99179.09;5062155;28;20028;-58
2021/07/22 06:00:28;;;;;;;3.97;0.90;;;;;;;20.49;47.69;99182.06;5061741;28;20021;-57
2021/07/22 06:03:14;;;;;;;2.08;1.08;;;;;;;20.56;48.19;99174.59;5058901;28;20048;-59
2021/07/22 06:05:59;;;;;;;1.20;1.00;;;;;;;20.59;47.44;99177.84;5056265;28;20096;-58
2021/07/22 06:08:45;;;;;;;1.17;1.00;;;;;;;20.67;47.28;99185.22;5061829;28;20103;-59
2021/07/22 06:11:31;;;;;;;3.03;1.08;;;;;;;20.79;48.37;99194.88;5061695;28;20357;-58
2021/07/22 06:14:17;;;;;;;2.67;1.10;;;;;;;20.78;46.73;99189.72;5063147;28;20226;-58
2021/07/22 06:17:03;;;;;;;1.38;1.08;;;;;;;20.94;46.44;99184.19;5061906;28;20292;-58
2021/07/22 06:19:49;;;;;;;2.90;0.98;;;;;;;21.06;47.16;99183.28;5054904;28;20074;-59
2021/07/22 06:22:36;;;;;;;2.83;1.10;;;;;;;20.95;45.93;99176.19;5061431;28;20021;-58
2021/07/22 06:25:22;;;;;;;3.40;0.90;;;;;;;20.95;45.10;99188.50;5061765;28;20261;-56
2021/07/22 06:28:07;;;;;;;2.67;1.30;;;;;;;21.01;44.97;99195.97;5061895;28;20029;-57
2021/07/22 06:30:54;;;;;;;1.45;1.10;;;;;;;21.07;44.25;99197.31;5063281;28;20093;-56
2021/07/22 06:33:40;;;;;;;2.05;0.90;;;;;;;20.93;44.58;99196.50;5065797;28;20094;-57
2021/07/22 06:36:26;;;;;;;1.48;1.10;;;;;;;20.98;44.09;99193.56;5064348;28;20025;-57
2021/07/22 06:39:23;;;;;;;2.95;1.20;;;;;;;21.07;45.26;99199.94;5065226;28;20029;-57
2021/07/22 06:42:08;;;;;;;2.30;0.95;;;;;;;21.22;45.28;99193.56;5063646;28;20036;-57
2021/07/22 06:44:54;;;;;;;5.15;1.20;;;;;;;21.20;45.09;99195.44;5066748;28;20097;-57
2021/07/22 06:47:41;;;;;;;1.40;1.00;;;;;;;21.38;43.87;99191.44;5065503;28;20035;-57
2021/07/22 06:50:26;;;;;;;2.67;0.98;;;;;;;21.51;43.59;99186.13;5065089;28;20024;-60
2021/07/22 06:53:12;;;;;;;3.15;1.02;;;;;;;21.52;44.01;99185.19;5060324;28;20021;-57
2021/07/22 06:55:58;;;;;;;3.65;1.45;;;;;;;21.50;41.84;99183.59;5058910;28;20024;-58
2021/07/22 06:58:44;;;;;;;4.47;1.08;;;;;;;21.62;41.92;99181.84;5064553;28;20258;-57
2021/07/22 07:01:30;;;;;;;4.82;1.00;;;;;;;21.79;42.17;99183.19;5064960;28;20025;-58
2021/07/22 07:04:16;;;;;;;2.20;0.85;;;;;;;21.87;41.56;99191.38;5061288;28;20394;-58
2021/07/22 07:07:02;;;;;;;1.15;0.85;;;;;;;21.95;41.34;99190.75;5064968;28;20028;-56
2021/07/22 07:09:47;;;;;;;3.45;1.33;;;;;;;21.97;40.33;99188.88;5064680;28;20238;-56
2021/07/22 07:12:33;;;;;;;4.50;1.15;;;;;;;22.03;40.02;99196.28;5064981;28;20033;-59
2021/07/22 07:15:20;;;;;;;2.05;0.88;;;;;;;22.05;40.23;99186.50;5065415;28;20024;-57
2021/07/22 07:18:06;;;;;;;2.13;1.00;;;;;;;21.88;37.83;99193.88;5065468;28;20070;-60
2021/07/22 07:20:52;;;;;;;3.63;1.00;;;;;;;21.96;38.20;99187.19;5065367;28;20110;-64
2021/07/22 07:23:37;;;;;;;3.40;0.80;;;;;;;21.88;36.17;99182.50;5064397;28;20021;-64
2021/07/22 07:26:23;;;;;;;3.25;0.80;;;;;;;21.77;37.09;99169.31;5065203;28;20035;-65
2021/07/22 07:29:09;;;;;;;3.22;1.00;;;;;;;21.86;37.07;99189.69;5065202;28;20084;-65
2021/07/22 07:31:59;;;;;;;2.53;0.93;;;;;;;21.78;36.38;99189.44;5064947;28;20060;-66
2021/07/22 07:34:45;;;;;;;2.88;0.90;;;;;;;21.85;36.38;99194.13;5065494;28;20029;-65
2021/07/22 07:37:31;;;;;;;2.30;0.85;;;;;;;21.74;36.20;99153.72;5056452;28;20025;-65
2021/07/22 07:40:17;;;;;;;1.10;0.90;;;;;;;21.86;35.58;99180.00;5063768;28;20025;-63
2021/07/22 07:43:03;;;;;;;1.25;0.80;;;;;;;21.97;36.05;99173.88;5063844;28;20100;-64
2021/07/22 07:45:49;;;;;;;3.78;0.98;;;;;;;22.14;37.18;99180.47;5064349;28;20032;-64
2021/07/22 07:48:35;;;;;;;1.73;0.90;;;;;;;22.09;37.32;99180.03;5064752;28;20025;-64
2021/07/22 07:51:21;;;;;;;4.30;0.90;;;;;;;22.06;37.41;99191.63;5064784;28;20021;-64
2021/07/22 07:54:07;;;;;;;2.15;1.52;;;;;;;22.25;38.65;99184.94;5061565;28;20064;-64
2021/07/22 07:56:52;;;;;;;4.15;1.40;;;;;;;22.22;38.85;99188.66;5063904;28;20025;-64
2021/07/22 07:59:38;;;;;;;3.85;1.20;;;;;;;22.13;37.02;99180.59;5063446;28;20047;-64
2021/07/22 08:02:24;;;;;;;4.30;1.10;;;;;;;22.16;37.38;99180.38;5057921;28;20037;-64
2021/07/22 08:05:10;;;;;;;6.32;1.30;;;;;;;22.03;35.18;99178.69;5063835;28;20035;-64
2021/07/22 08:07:56;;;;;;;5.18;1.10;;;;;;;22.19;36.43;99180.97;5057719;28;20032;-66
2021/07/22 08:10:43;;;;;;;2.15;0.90;;;;;;;22.00;36.76;99138.53;5063705;28;20052;-65
2021/07/22 08:13:28;;;;;;;3.72;1.30;;;;;;;22.36;36.98;99181.47;5058939;28;20031;-64
2021/07/22 08:16:18;;;;;;;3.40;1.30;;;;;;;22.48;37.34;99185.78;5063965;28;20024;-63
2021/07/22 08:19:04;;;;;;;2.53;1.48;;;;;;;22.45;36.48;99186.03;5063713;28;20013;-63
2021/07/22 08:21:50;;;;;;;1.75;1.00;;;;;;;22.50;35.49;99188.31;5063845;28;20061;-64
2021/07/22 08:24:36;;;;;;;1.35;0.80;;;;;;;22.43;36.02;99180.03;5063822;28;20391;-64
2021/07/22 08:27:29;;;;;;;3.00;0.93;;;;;;;22.62;36.93;99183.84;5061773;28;20077;-64
2021/07/22 08:30:16;;;;;;;1.45;0.80;;;;;;;22.62;36.20;99175.91;5063110;28;20012;-65
2021/07/22 08:33:02;;;;;;;3.10;0.90;;;;;;;22.60;35.14;99181.31;5060699;28;20025;-64
2021/07/22 08:35:47;;;;;;;1.77;0.98;;;;;;;22.67;35.65;99179.03;5064586;28;20048;-64
2021/07/22 08:38:33;;;;;;;1.55;0.90;;;;;;;22.72;35.60;99176.88;5063444;28;20218;-65
2021/07/22 08:41:19;;;;;;;2.95;1.00;;;;;;;22.60;35.71;99175.22;5063299;28;20028;-64
2021/07/22 08:44:07;;;;;;;2.70;1.10;;;;;;;22.78;36.44;99178.19;5063184;28;20020;-63
2021/07/22 08:46:53;;;;;;;2.35;0.85;;;;;;;22.89;36.70;99173.72;5062731;28;20060;-64
2021/07/22 08:49:39;;;;;;;1.58;1.17;;;;;;;22.80;36.89;99158.59;5063045;28;20033;-64
2021/07/22 08:52:27;;;;;;;7.68;1.00;;;;;;;23.02;36.54;99178.84;5062929;28;20123;-63
2021/07/22 08:55:13;;;;;;;2.40;1.00;;;;;;;23.09;36.82;99173.91;5052307;28;20025;-63
2021/07/22 08:57:59;;;;;;;3.50;1.40;;;;;;;23.18;36.46;99174.97;5062748;28;20045;-64
2021/07/22 09:00:45;;;;;;;2.17;0.90;;;;;;;23.14;36.36;99158.53;5054536;28;20039;-64
2021/07/22 09:03:31;;;;;;;2.33;0.98;;;;;;;23.26;36.43;99177.81;5059080;28;20020;-64
2021/07/22 09:06:17;;;;;;;3.22;1.13;;;;;;;23.33;36.05;99175.50;5052840;28;20029;-64
2021/07/22 09:09:13;;;;;;;2.95;1.13;;;;;;;23.43;36.53;99168.50;5057609;28;20079;-63
2021/07/22 09:12:01;;;;;;;1.90;1.10;;;;;;;23.36;36.75;99170.81;5054929;28;20036;-64
2021/07/22 09:14:56;;;;;;;2.10;1.48;;;;;;;23.22;35.42;99127.03;5041299;28;20033;-63
2021/07/22 09:17:42;;;;;;;3.42;1.25;;;;;;;23.67;35.90;99177.97;5063536;28;20092;-63
2021/07/22 09:20:28;;;;;;;3.38;0.80;;;;;;;23.56;34.76;99169.13;5063058;28;20032;-63
2021/07/22 09:23:41;;;;;;;4.53;0.90;;;;;;;23.59;34.29;99176.81;5063054;28;20033;-63
2021/07/22 09:26:36;;;;;;;2.45;1.23;;;;;;;23.67;35.19;99175.31;5063396;28;20035;-64
2021/07/22 09:29:21;;;;;;;3.95;1.15;;;;;;;23.60;34.84;99173.19;5062394;28;20114;-64
2021/07/22 09:32:08;;;;;;;4.18;1.00;;;;;;;23.83;34.88;99173.06;5062380;28;20214;-65
2021/07/22 09:35:29;;;;;;;3.15;1.05;;;;;;;23.70;33.80;99178.56;5056261;28;20318;-64
2021/07/22 09:38:15;;;;;;;3.03;0.90;;;;;;;23.56;34.49;99179.72;5062303;28;20025;-65
2021/07/22 09:41:01;;;;;;;3.67;1.10;;;;;;;23.26;33.92;99177.81;5062383;28;20074;-65
2021/07/22 09:43:48;;;;;;;2.90;1.23;;;;;;;23.44;35.87;99191.28;5062219;28;20052;-65
2021/07/22 09:46:44;;;;;;;4.53;1.08;;;;;;;23.53;34.32;99171.19;5061829;28;20330;-62
2021/07/22 09:49:35;;;;;;;4.90;1.13;;;;;;;23.47;34.79;99169.06;5061542;28;20025;-64
2021/07/22 09:52:23;;;;;;;3.35;1.02;;;;;;;23.56;35.62;99181.53;5058916;28;20029;-65
2021/07/22 09:55:26;;;;;;;4.07;1.00;;;;;;;23.49;33.79;99170.63;5061082;28;20067;-64
2021/07/22 09:58:13;;;;;;;3.13;1.13;;;;;;;23.47;35.02;99177.00;5062072;28;20057;-64
2021/07/22 10:01:00;;;;;;;1.88;0.90;;;;;;;23.47;33.89;99172.53;5062055;28;20324;-64
2021/07/22 10:03:46;;;;;;;3.90;1.10;;;;;;;23.54;34.83;99175.50;5061919;28;20278;-63
2021/07/22 10:06:35;;;;;;;2.20;0.90;;;;;;;23.48;34.73;99161.00;5060151;28;20045;-65
2021/07/22 10:09:23;;;;;;;3.70;0.90;;;;;;;23.53;34.34;99160.59;5061843;28;20108;-64
2021/07/22 10:12:09;;;;;;;2.97;0.77;;;;;;;23.20;33.93;99139.53;5061760;28;20025;-64
2021/07/22 10:14:57;;;;;;;1.00;0.90;;;;;;;23.42;33.50;99170.28;5063078;28;20036;-65
2021/07/22 10:17:46;;;;;;;4.30;0.95;;;;;;;23.55;33.43;99166.63;5062377;28;20195;-65
2021/07/22 10:20:33;;;;;;;1.83;0.80;;;;;;;23.41;33.19;99188.91;5057487;28;20025;-64
2021/07/22 10:23:20;;;;;;;3.13;0.75;;;;;;;23.51;33.79;99163.38;5061663;28;20334;-64
2021/07/22 10:26:07;;;;;;;1.75;0.70;;;;;;;22.98;33.17;99126.38;5061721;28;20028;-64
2021/07/22 10:28:53;;;;;;;3.25;0.75;;;;;;;23.29;33.61;99164.34;5057697;28;20032;-64
2021/07/22 10:31:42;;;;;;;0.90;0.75;;;;;;;23.40;34.13;99155.50;5058056;28;20225;-65
2021/07/22 10:34:33;;;;;;;5.50;0.93;;;;;;;22.95;32.98;99110.81;5061456;28;20037;-64
2021/07/22 10:37:20;;;;;;;4.32;0.95;;;;;;;23.39;34.71;99161.78;5061684;28;20059;-65
2021/07/22 10:40:10;;;;;;;4.80;0.80;;;;;;;23.36;33.53;99164.66;5056576;28;20063;-64
2021/07/22 10:42:56;;;;;;;3.05;0.90;;;;;;;23.25;33.77;99174.31;5061714;28;20227;-64
2021/07/22 10:45:52;;;;;;;1.88;0.88;;;;;;;23.08;34.39;99149.25;5061579;28;20025;-63
2021/07/22 10:48:40;;;;;;;1.50;0.90;;;;;;;23.35;34.99;99168.28;5062013;28;20064;-64
2021/07/22 10:51:38;;;;;;;8.07;1.13;;;;;;;22.99;33.69;99118.34;5061261;28;20028;-63
2021/07/22 10:54:49;;;;;;;5.35;1.05;;;;;;;23.23;34.57;99168.34;5061732;28;20249;-64
2021/07/22 10:57:39;;;;;;;2.43;0.77;;;;;;;23.29;34.07;99168.78;5061528;28;20033;-63
2021/07/22 11:00:40;;;;;;;2.47;0.75;;;;;;;23.20;34.26;99179.16;5062475;28;20289;-65
2021/07/22 11:03:38;;;;;;;4.22;1.00;;;;;;;23.18;35.27;99167.88;5061232;28;20021;-65
2021/07/22 11:06:24;;;;;;;4.88;0.77;;;;;;;23.25;35.37;99170.84;5060161;28;20096;-64
2021/07/22 11:09:10;;;;;;;2.60;0.73;;;;;;;23.17;35.14;99176.75;5055226;28;20079;-64
2021/07/22 11:11:56;;;;;;;1.73;0.80;;;;;;;23.07;35.10;99166.09;5059708;28;20040;-64
2021/07/22 11:14:42;;;;;;;3.42;1.30;;;;;;;22.95;35.61;99171.53;5061572;28;20032;-65
2021/07/22 11:17:35;;;;;;;5.20;0.98;;;;;;;22.74;34.81;99174.94;5063405;28;20204;-64
2021/07/22 11:20:21;;;;;;;3.40;0.93;;;;;;;22.67;34.46;99179.88;5065290;28;20044;-65
2021/07/22 11:23:12;;;;;;;1.52;0.70;;;;;;;22.84;34.26;99181.16;5065246;28;20025;-64
2021/07/22 11:25:58;;;;;;;3.92;1.42;;;;;;;22.88;35.25;99185.22;5064947;28;20096;-64
2021/07/22 11:28:48;;;;;;;1.60;0.90;;;;;;;22.81;35.13;99148.91;5064675;28;20020;-64
2021/07/22 11:31:46;;;;;;;11.77;3.33;;;;;;;22.98;35.56;99171.28;5064398;28;20024;-64
2021/07/22 11:34:34;;;;;;;5.05;0.90;;;;;;;22.99;35.33;99172.94;5063200;28;20052;-63
2021/07/22 11:37:20;;;;;;;5.28;1.50;;;;;;;22.95;35.21;99163.63;5063411;28;20078;-63
2021/07/22 11:40:07;;;;;;;4.63;1.48;;;;;;;23.14;35.73;99166.44;5065205;28;20029;-64
2021/07/22 11:42:53;;;;;;;3.60;1.20;;;;;;;23.22;36.00;99163.19;5059228;28;20034;-63
2021/07/22 11:45:43;;;;;;;4.88;1.35;;;;;;;23.26;33.91;99154.88;5064871;28;20033;-63
2021/07/22 11:48:30;;;;;;;3.08;1.20;;;;;;;23.30;33.86;99151.97;5064228;28;20032;-64
2021/07/22 11:51:15;;;;;;;5.45;1.33;;;;;;;23.29;34.12;99164.34;5063920;28;20066;-63
2021/07/22 11:54:02;;;;;;;3.45;1.30;;;;;;;23.36;35.24;99154.94;5058387;28;20325;-63
2021/07/22 11:56:53;;;;;;;4.38;1.00;;;;;;;23.13;34.72;99150.72;5064191;28;20027;-63
2021/07/22 11:59:39;;;;;;;4.67;1.83;;;;;;;23.00;34.53;99166.72;5061554;28;20041;-64
2021/07/22 12:02:25;;;;;;;5.57;1.30;;;;;;;23.06;33.80;99163.59;5059456;28;20025;-64
2021/07/22 12:05:11;;;;;;;3.00;1.13;;;;;;;23.12;34.66;99157.81;5065289;28;20242;-64
2021/07/22 12:08:16;;;;;;;2.10;0.90;;;;;;;22.87;34.81;99107.00;5064580;28;20025;-64
2021/07/22 12:11:04;;;;;;;3.10;0.98;;;;;;;23.20;34.87;99165.97;5061084;28;20233;-64
2021/07/22 12:13:51;;;;;;;3.67;1.40;;;;;;;23.01;34.82;99118.22;5061382;28;20052;-64
2021/07/22 12:16:38;;;;;;;4.25;1.35;;;;;;;22.95;33.83;99132.75;5063602;28;20033;-63
2021/07/22 12:19:28;;;;;;;1.90;1.13;;;;;;;23.26;34.94;99146.94;5063116;28;20037;-63
2021/07/22 12:22:21;;;;;;;4.03;1.77;;;;;;;23.09;34.28;99166.81;5063142;28;20020;-64
2021/07/22 12:25:06;;;;;;;2.92;1.48;;;;;;;23.11;33.79;99153.50;5059149;28;20025;-63
2021/07/22 12:27:53;;;;;;;4.70;1.30;;;;;;;23.04;33.36;99139.91;5057581;28;20321;-64
2021/07/22 12:30:39;;;;;;;1.98;1.25;;;;;;;23.17;34.92;99152.97;5063878;28;20104;-64
2021/07/22 12:33:26;;;;;;;4.03;1.65;;;;;;;23.10;34.54;99141.22;5063355;28;20250;-65
2021/07/22 12:36:20;;;;;;;5.43;1.20;;;;;;;22.90;33.31;99100.59;5063493;28;20040;-64
2021/07/22 12:39:15;;;;;;;2.67;1.10;;;;;;;23.26;32.73;99139.03;5059460;28;20033;-63
2021/07/22 12:42:12;;;;;;;1.75;1.08;;;;;;;23.26;33.23;99139.03;5063065;28;20033;-64
2021/07/22 12:45:13;;;;;;;3.13;1.10;;;;;;;22.89;32.42;99120.91;5057663;28;20241;-64
2021/07/22 12:47:59;;;;;;;4.43;1.53;;;;;;;23.07;32.71;99144.97;5058551;28;20273;-63
2021/07/22 12:50:47;;;;;;;3.13;1.08;;;;;;;23.10;33.65;99146.50;5062798;28;20024;-64
2021/07/22 12:53:33;;;;;;;2.55;1.10;;;;;;;22.93;33.53;99132.03;5058163;28;20053;-64
2021/07/22 12:56:20;;;;;;;3.05;1.30;;;;;;;22.71;33.25;99103.91;5060057;28;20024;-65
2021/07/22 12:59:09;;;;;;;3.72;1.00;;;;;;;22.65;33.36;99107.06;5062657;28;20100;-65
2021/07/22 13:01:56;;;;;;;2.05;1.10;;;;;;;22.95;34.10;99143.31;5056491;28;20071;-64
2021/07/22 13:04:42;;;;;;;2.60;1.05;;;;;;;23.08;34.46;99138.69;5062019;28;20352;-65
2021/07/22 13:07:28;;;;;;;1.63;1.10;;;;;;;23.07;34.41;99141.47;5056912;28;20283;-64
2021/07/22 13:10:15;;;;;;;5.35;1.15;;;;;;;22.93;33.87;99130.25;5061629;28;20364;-63